sensor_id;sensor_type;location;lat;lon;timestamp;P1;durP1;ratioP1;P2;durP2;ratioP2
14603;SDS011;7388;51.078;13.740;2022-08-19T00:01:10;11.03;;;9.30;;
14603;SDS011;7388;51.078;13.740;2022-08-19T00:03:36;11.70;;;8.20;;
14603;SDS011;7388;51.078;13.740;2022-08-19T00:06:02;11.10;;;9.57;;
14603;SDS011;7388;51.078;13.740;2022-08-19T00:08:28;8.90;;;8.00;;
14603;SDS011;7388;51.078;13.740;2022-08-19T00:10:54;10.23;;;8.60;;
14603;SDS011;7388;51.078;13.740;2022-08-19T00:13:20;12.90;;;9.70;;
14603;SDS011;7388;51.078;13.740;2022-08-19T00:15:45;11.53;;;9.00;;
14603;SDS011;7388;51.078;13.740;2022-08-19T00:18:11;12.13;;;9.70;;
14603;SDS011;7388;51.078;13.740;2022-08-19T00:20:37;12.30;;;9.20;;
14603;SDS011;7388;51.078;13.740;2022-08-19T00:23:05;14.37;;;8.30;;
14603;SDS011;7388;51.078;13.740;2022-08-19T00:25:32;10.27;;;8.77;;
14603;SDS011;7388;51.078;13.740;2022-08-19T00:27:58;11.83;;;10.30;;
14603;SDS011;7388;51.078;13.740;2022-08-19T00:30:24;12.37;;;9.40;;
14603;SDS011;7388;51.078;13.740;2022-08-19T00:32:52;10.90;;;9.40;;
14603;SDS011;7388;51.078;13.740;2022-08-19T00:35:20;11.37;;;10.17;;
14603;SDS011;7388;51.078;13.740;2022-08-19T00:37:47;11.13;;;9.90;;
14603;SDS011;7388;51.078;13.740;2022-08-19T00:40:14;9.27;;;7.83;;
14603;SDS011;7388;51.078;13.740;2022-08-19T00:42:41;10.70;;;8.67;;
14603;SDS011;7388;51.078;13.740;2022-08-19T00:45:09;13.90;;;10.40;;
14603;SDS011;7388;51.078;13.740;2022-08-19T00:47:39;10.80;;;9.70;;
14603;SDS011;7388;51.078;13.740;2022-08-19T00:50:05;12.83;;;10.40;;
14603;SDS011;7388;51.078;13.740;2022-08-19T00:52:33;13.70;;;10.30;;
14603;SDS011;7388;51.078;13.740;2022-08-19T00:55:03;10.90;;;9.07;;
14603;SDS011;7388;51.078;13.740;2022-08-19T00:57:34;11.83;;;10.63;;
14603;SDS011;7388;51.078;13.740;2022-08-19T01:00:06;12.70;;;9.37;;
14603;SDS011;7388;51.078;13.740;2022-08-19T01:02:36;11.20;;;9.10;;
14603;SDS011;7388;51.078;13.740;2022-08-19T01:05:05;13.50;;;9.67;;
14603;SDS011;7388;51.078;13.740;2022-08-19T01:07:37;12.90;;;10.70;;
14603;SDS011;7388;51.078;13.740;2022-08-19T01:10:05;12.50;;;10.70;;
14603;SDS011;7388;51.078;13.740;2022-08-19T01:12:35;12.60;;;9.40;;
14603;SDS011;7388;51.078;13.740;2022-08-19T01:15:01;15.83;;;11.43;;
14603;SDS011;7388;51.078;13.740;2022-08-19T01:17:28;12.20;;;9.90;;
14603;SDS011;7388;51.078;13.740;2022-08-19T01:19:54;11.97;;;9.67;;
14603;SDS011;7388;51.078;13.740;2022-08-19T01:24:50;15.90;;;12.27;;
14603;SDS011;7388;51.078;13.740;2022-08-19T01:27:16;11.00;;;9.30;;
14603;SDS011;7388;51.078;13.740;2022-08-19T01:29:43;14.57;;;9.90;;
14603;SDS011;7388;51.078;13.740;2022-08-19T01:32:11;13.43;;;11.00;;
14603;SDS011;7388;51.078;13.740;2022-08-19T01:34:39;12.93;;;11.03;;
14603;SDS011;7388;51.078;13.740;2022-08-19T01:37:06;13.13;;;9.87;;
14603;SDS011;7388;51.078;13.740;2022-08-19T01:39:36;14.47;;;10.53;;
14603;SDS011;7388;51.078;13.740;2022-08-19T01:42:03;13.10;;;10.23;;
14603;SDS011;7388;51.078;13.740;2022-08-19T01:44:30;12.40;;;10.73;;
14603;SDS011;7388;51.078;13.740;2022-08-19T01:46:56;19.83;;;11.03;;
14603;SDS011;7388;51.078;13.740;2022-08-19T01:49:23;11.20;;;10.00;;
14603;SDS011;7388;51.078;13.740;2022-08-19T01:51:50;14.13;;;10.83;;
14603;SDS011;7388;51.078;13.740;2022-08-19T01:54:17;16.60;;;11.00;;
14603;SDS011;7388;51.078;13.740;2022-08-19T01:56:44;12.93;;;11.33;;
14603;SDS011;7388;51.078;13.740;2022-08-19T01:59:12;12.90;;;10.43;;
14603;SDS011;7388;51.078;13.740;2022-08-19T02:01:41;14.20;;;10.97;;
14603;SDS011;7388;51.078;13.740;2022-08-19T02:04:07;12.97;;;10.27;;
14603;SDS011;7388;51.078;13.740;2022-08-19T02:06:33;11.83;;;10.27;;
14603;SDS011;7388;51.078;13.740;2022-08-19T02:09:00;11.23;;;10.13;;
14603;SDS011;7388;51.078;13.740;2022-08-19T02:11:30;13.53;;;11.60;;
14603;SDS011;7388;51.078;13.740;2022-08-19T02:13:58;13.20;;;11.03;;
14603;SDS011;7388;51.078;13.740;2022-08-19T02:16:27;12.27;;;10.07;;
14603;SDS011;7388;51.078;13.740;2022-08-19T02:18:53;11.30;;;9.00;;
14603;SDS011;7388;51.078;13.740;2022-08-19T02:21:20;12.23;;;10.93;;
14603;SDS011;7388;51.078;13.740;2022-08-19T02:23:48;14.43;;;10.50;;
14603;SDS011;7388;51.078;13.740;2022-08-19T02:26:15;12.50;;;10.17;;
14603;SDS011;7388;51.078;13.740;2022-08-19T02:28:42;16.00;;;11.97;;
14603;SDS011;7388;51.078;13.740;2022-08-19T02:31:12;14.37;;;11.33;;
14603;SDS011;7388;51.078;13.740;2022-08-19T02:33:42;14.60;;;10.97;;
14603;SDS011;7388;51.078;13.740;2022-08-19T02:36:08;12.33;;;11.03;;
14603;SDS011;7388;51.078;13.740;2022-08-19T02:38:35;11.63;;;10.43;;
14603;SDS011;7388;51.078;13.740;2022-08-19T02:41:11;15.67;;;11.77;;
14603;SDS011;7388;51.078;13.740;2022-08-19T02:43:42;9.77;;;8.77;;
14603;SDS011;7388;51.078;13.740;2022-08-19T02:46:41;12.10;;;8.87;;
14603;SDS011;7388;51.078;13.740;2022-08-19T02:49:05;12.37;;;10.63;;
14603;SDS011;7388;51.078;13.740;2022-08-19T02:51:33;14.03;;;11.37;;
14603;SDS011;7388;51.078;13.740;2022-08-19T02:54:01;12.17;;;10.43;;
14603;SDS011;7388;51.078;13.740;2022-08-19T02:56:28;12.90;;;11.60;;
14603;SDS011;7388;51.078;13.740;2022-08-19T02:58:56;11.77;;;9.83;;
14603;SDS011;7388;51.078;13.740;2022-08-19T03:01:30;12.17;;;10.97;;
14603;SDS011;7388;51.078;13.740;2022-08-19T03:03:57;13.13;;;11.00;;
14603;SDS011;7388;51.078;13.740;2022-08-19T03:06:25;11.63;;;10.43;;
14603;SDS011;7388;51.078;13.740;2022-08-19T03:08:52;13.70;;;11.27;;
14603;SDS011;7388;51.078;13.740;2022-08-19T03:11:26;13.47;;;11.17;;
14603;SDS011;7388;51.078;13.740;2022-08-19T03:13:54;12.83;;;10.47;;
14603;SDS011;7388;51.078;13.740;2022-08-19T03:16:21;12.87;;;11.33;;
14603;SDS011;7388;51.078;13.740;2022-08-19T03:18:49;14.93;;;11.93;;
14603;SDS011;7388;51.078;13.740;2022-08-19T03:21:19;14.03;;;12.53;;
14603;SDS011;7388;51.078;13.740;2022-08-19T03:23:49;12.10;;;10.70;;
14603;SDS011;7388;51.078;13.740;2022-08-19T03:26:15;17.80;;;12.90;;
14603;SDS011;7388;51.078;13.740;2022-08-19T03:28:42;15.10;;;11.23;;
14603;SDS011;7388;51.078;13.740;2022-08-19T03:31:12;13.50;;;10.83;;
14603;SDS011;7388;51.078;13.740;2022-08-19T03:33:39;11.93;;;10.47;;
14603;SDS011;7388;51.078;13.740;2022-08-19T03:38:36;15.63;;;11.67;;
14603;SDS011;7388;51.078;13.740;2022-08-19T03:41:10;11.87;;;10.57;;
14603;SDS011;7388;51.078;13.740;2022-08-19T03:43:38;16.13;;;12.83;;
14603;SDS011;7388;51.078;13.740;2022-08-19T03:46:09;17.97;;;11.90;;
14603;SDS011;7388;51.078;13.740;2022-08-19T03:48:37;13.80;;;12.00;;
14603;SDS011;7388;51.078;13.740;2022-08-19T03:51:05;18.80;;;11.90;;
14603;SDS011;7388;51.078;13.740;2022-08-19T03:53:33;13.80;;;12.27;;
14603;SDS011;7388;51.078;13.740;2022-08-19T03:56:00;15.17;;;12.10;;
14603;SDS011;7388;51.078;13.740;2022-08-19T03:58:27;11.60;;;10.43;;
14603;SDS011;7388;51.078;13.740;2022-08-19T04:00:55;13.60;;;11.27;;
14603;SDS011;7388;51.078;13.740;2022-08-19T04:03:22;12.97;;;11.67;;
14603;SDS011;7388;51.078;13.740;2022-08-19T04:05:49;15.00;;;11.23;;
14603;SDS011;7388;51.078;13.740;2022-08-19T04:08:15;13.53;;;12.13;;
14603;SDS011;7388;51.078;13.740;2022-08-19T04:10:44;13.20;;;11.80;;
14603;SDS011;7388;51.078;13.740;2022-08-19T04:13:10;13.00;;;11.03;;
14603;SDS011;7388;51.078;13.740;2022-08-19T04:15:40;11.60;;;10.40;;
14603;SDS011;7388;51.078;13.740;2022-08-19T04:18:10;13.10;;;10.80;;
14603;SDS011;7388;51.078;13.740;2022-08-19T04:20:40;16.30;;;12.00;;
14603;SDS011;7388;51.078;13.740;2022-08-19T04:23:07;14.73;;;11.73;;
14603;SDS011;7388;51.078;13.740;2022-08-19T04:25:37;12.07;;;10.87;;
14603;SDS011;7388;51.078;13.740;2022-08-19T04:28:07;15.50;;;11.20;;
14603;SDS011;7388;51.078;13.740;2022-08-19T04:30:38;13.30;;;11.53;;
14603;SDS011;7388;51.078;13.740;2022-08-19T04:33:06;13.80;;;11.03;;
14603;SDS011;7388;51.078;13.740;2022-08-19T04:35:36;13.47;;;11.60;;
14603;SDS011;7388;51.078;13.740;2022-08-19T04:38:06;15.07;;;12.10;;
14603;SDS011;7388;51.078;13.740;2022-08-19T04:40:33;13.27;;;11.87;;
14603;SDS011;7388;51.078;13.740;2022-08-19T04:43:17;15.40;;;12.40;;
14603;SDS011;7388;51.078;13.740;2022-08-19T04:45:44;14.03;;;11.53;;
14603;SDS011;7388;51.078;13.740;2022-08-19T04:48:11;12.70;;;11.33;;
14603;SDS011;7388;51.078;13.740;2022-08-19T04:50:39;14.73;;;12.17;;
14603;SDS011;7388;51.078;13.740;2022-08-19T04:53:06;15.10;;;12.70;;
14603;SDS011;7388;51.078;13.740;2022-08-19T04:55:32;16.20;;;11.90;;
14603;SDS011;7388;51.078;13.740;2022-08-19T04:57:59;14.23;;;10.60;;
14603;SDS011;7388;51.078;13.740;2022-08-19T05:00:25;15.40;;;11.50;;
14603;SDS011;7388;51.078;13.740;2022-08-19T05:02:51;14.17;;;11.20;;
14603;SDS011;7388;51.078;13.740;2022-08-19T05:05:17;13.47;;;11.17;;
14603;SDS011;7388;51.078;13.740;2022-08-19T05:07:43;12.60;;;10.77;;
14603;SDS011;7388;51.078;13.740;2022-08-19T05:10:08;14.40;;;11.33;;
14603;SDS011;7388;51.078;13.740;2022-08-19T05:12:34;15.43;;;12.00;;
14603;SDS011;7388;51.078;13.740;2022-08-19T05:15:01;13.70;;;12.30;;
14603;SDS011;7388;51.078;13.740;2022-08-19T05:17:29;14.20;;;11.27;;
14603;SDS011;7388;51.078;13.740;2022-08-19T05:19:55;17.13;;;13.10;;
14603;SDS011;7388;51.078;13.740;2022-08-19T05:22:39;14.43;;;11.00;;
14603;SDS011;7388;51.078;13.740;2022-08-19T05:25:10;15.17;;;11.13;;
14603;SDS011;7388;51.078;13.740;2022-08-19T05:27:38;13.20;;;11.40;;
14603;SDS011;7388;51.078;13.740;2022-08-19T05:30:05;12.50;;;11.03;;
14603;SDS011;7388;51.078;13.740;2022-08-19T05:32:31;14.83;;;12.60;;
14603;SDS011;7388;51.078;13.740;2022-08-19T05:34:57;14.43;;;11.00;;
14603;SDS011;7388;51.078;13.740;2022-08-19T05:37:22;14.00;;;10.47;;
14603;SDS011;7388;51.078;13.740;2022-08-19T05:39:51;15.47;;;11.57;;
14603;SDS011;7388;51.078;13.740;2022-08-19T05:42:17;16.53;;;12.00;;
14603;SDS011;7388;51.078;13.740;2022-08-19T05:44:45;11.57;;;10.00;;
14603;SDS011;7388;51.078;13.740;2022-08-19T05:47:12;17.77;;;11.80;;
14603;SDS011;7388;51.078;13.740;2022-08-19T05:49:39;12.33;;;10.20;;
14603;SDS011;7388;51.078;13.740;2022-08-19T05:52:07;13.27;;;10.23;;
14603;SDS011;7388;51.078;13.740;2022-08-19T05:54:36;15.53;;;11.63;;
14603;SDS011;7388;51.078;13.740;2022-08-19T05:57:05;16.53;;;11.40;;
14603;SDS011;7388;51.078;13.740;2022-08-19T05:59:32;15.80;;;11.90;;
14603;SDS011;7388;51.078;13.740;2022-08-19T06:01:59;14.63;;;12.47;;
14603;SDS011;7388;51.078;13.740;2022-08-19T06:04:25;14.43;;;11.37;;
14603;SDS011;7388;51.078;13.740;2022-08-19T06:06:52;10.83;;;9.73;;
14603;SDS011;7388;51.078;13.740;2022-08-19T06:09:19;12.23;;;10.30;;
14603;SDS011;7388;51.078;13.740;2022-08-19T06:11:47;12.57;;;9.50;;
14603;SDS011;7388;51.078;13.740;2022-08-19T06:14:19;11.87;;;9.33;;
14603;SDS011;7388;51.078;13.740;2022-08-19T06:16:48;10.80;;;8.40;;
14603;SDS011;7388;51.078;13.740;2022-08-19T06:19:17;8.43;;;7.60;;
14603;SDS011;7388;51.078;13.740;2022-08-19T06:21:45;9.50;;;7.93;;
14603;SDS011;7388;51.078;13.740;2022-08-19T06:24:13;10.00;;;7.83;;
14603;SDS011;7388;51.078;13.740;2022-08-19T06:26:41;10.30;;;8.07;;
14603;SDS011;7388;51.078;13.740;2022-08-19T06:29:10;8.33;;;7.43;;
14603;SDS011;7388;51.078;13.740;2022-08-19T06:31:40;9.77;;;8.10;;
14603;SDS011;7388;51.078;13.740;2022-08-19T06:34:11;10.30;;;7.73;;
14603;SDS011;7388;51.078;13.740;2022-08-19T06:36:40;9.07;;;7.60;;
14603;SDS011;7388;51.078;13.740;2022-08-19T06:39:12;10.80;;;8.33;;
14603;SDS011;7388;51.078;13.740;2022-08-19T06:41:41;8.50;;;6.57;;
14603;SDS011;7388;51.078;13.740;2022-08-19T06:44:09;8.37;;;7.47;;
14603;SDS011;7388;51.078;13.740;2022-08-19T06:46:36;9.57;;;7.70;;
14603;SDS011;7388;51.078;13.740;2022-08-19T06:49:03;8.77;;;7.80;;
14603;SDS011;7388;51.078;13.740;2022-08-19T06:51:29;10.80;;;7.50;;
14603;SDS011;7388;51.078;13.740;2022-08-19T06:53:57;8.60;;;7.10;;
14603;SDS011;7388;51.078;13.740;2022-08-19T06:56:25;11.80;;;9.13;;
14603;SDS011;7388;51.078;13.740;2022-08-19T06:58:59;12.80;;;8.60;;
14603;SDS011;7388;51.078;13.740;2022-08-19T07:01:51;14.27;;;8.83;;
14603;SDS011;7388;51.078;13.740;2022-08-19T07:04:20;11.17;;;8.80;;
14603;SDS011;7388;51.078;13.740;2022-08-19T07:06:48;12.37;;;9.87;;
14603;SDS011;7388;51.078;13.740;2022-08-19T07:09:17;13.23;;;9.80;;
14603;SDS011;7388;51.078;13.740;2022-08-19T07:11:44;11.50;;;9.10;;
14603;SDS011;7388;51.078;13.740;2022-08-19T07:14:12;12.43;;;9.93;;
14603;SDS011;7388;51.078;13.740;2022-08-19T07:16:39;10.90;;;9.77;;
14603;SDS011;7388;51.078;13.740;2022-08-19T07:19:05;15.47;;;10.77;;
14603;SDS011;7388;51.078;13.740;2022-08-19T07:21:31;12.00;;;9.30;;
14603;SDS011;7388;51.078;13.740;2022-08-19T07:23:58;14.43;;;11.13;;
14603;SDS011;7388;51.078;13.740;2022-08-19T07:26:26;14.57;;;11.70;;
14603;SDS011;7388;51.078;13.740;2022-08-19T07:28:54;12.70;;;10.20;;
14603;SDS011;7388;51.078;13.740;2022-08-19T07:31:21;14.93;;;10.87;;
14603;SDS011;7388;51.078;13.740;2022-08-19T07:33:49;15.97;;;10.57;;
14603;SDS011;7388;51.078;13.740;2022-08-19T07:36:17;14.40;;;12.00;;
14603;SDS011;7388;51.078;13.740;2022-08-19T07:38:46;14.37;;;10.60;;
14603;SDS011;7388;51.078;13.740;2022-08-19T07:41:15;16.60;;;10.20;;
14603;SDS011;7388;51.078;13.740;2022-08-19T07:43:47;16.30;;;10.30;;
14603;SDS011;7388;51.078;13.740;2022-08-19T07:46:14;15.13;;;10.90;;
14603;SDS011;7388;51.078;13.740;2022-08-19T07:48:42;16.33;;;11.63;;
14603;SDS011;7388;51.078;13.740;2022-08-19T07:51:12;17.20;;;10.63;;
14603;SDS011;7388;51.078;13.740;2022-08-19T07:53:40;13.43;;;10.03;;
14603;SDS011;7388;51.078;13.740;2022-08-19T07:56:06;16.07;;;12.50;;
14603;SDS011;7388;51.078;13.740;2022-08-19T07:58:34;15.60;;;12.07;;
14603;SDS011;7388;51.078;13.740;2022-08-19T08:01:03;14.30;;;9.90;;
14603;SDS011;7388;51.078;13.740;2022-08-19T08:03:31;13.57;;;10.07;;
14603;SDS011;7388;51.078;13.740;2022-08-19T08:06:15;13.63;;;10.80;;
14603;SDS011;7388;51.078;13.740;2022-08-19T08:09:00;12.17;;;9.70;;
14603;SDS011;7388;51.078;13.740;2022-08-19T08:11:38;16.50;;;11.93;;
14603;SDS011;7388;51.078;13.740;2022-08-19T08:14:06;13.63;;;10.63;;
14603;SDS011;7388;51.078;13.740;2022-08-19T08:16:38;13.77;;;12.00;;
14603;SDS011;7388;51.078;13.740;2022-08-19T08:19:04;14.70;;;11.60;;
14603;SDS011;7388;51.078;13.740;2022-08-19T08:21:31;12.00;;;10.60;;
14603;SDS011;7388;51.078;13.740;2022-08-19T08:23:57;14.20;;;10.20;;
14603;SDS011;7388;51.078;13.740;2022-08-19T08:26:24;13.13;;;11.03;;
14603;SDS011;7388;51.078;13.740;2022-08-19T08:28:50;13.50;;;10.60;;
14603;SDS011;7388;51.078;13.740;2022-08-19T08:31:19;10.77;;;9.53;;
14603;SDS011;7388;51.078;13.740;2022-08-19T08:33:45;11.33;;;9.40;;
14603;SDS011;7388;51.078;13.740;2022-08-19T08:36:12;13.30;;;11.50;;
14603;SDS011;7388;51.078;13.740;2022-08-19T08:38:39;11.00;;;9.57;;
14603;SDS011;7388;51.078;13.740;2022-08-19T08:43:59;14.37;;;10.60;;
14603;SDS011;7388;51.078;13.740;2022-08-19T08:46:33;12.43;;;10.07;;
14603;SDS011;7388;51.078;13.740;2022-08-19T08:51:51;13.10;;;9.07;;
14603;SDS011;7388;51.078;13.740;2022-08-19T08:54:22;10.00;;;8.03;;
14603;SDS011;7388;51.078;13.740;2022-08-19T08:56:51;11.80;;;10.60;;
14603;SDS011;7388;51.078;13.740;2022-08-19T08:59:24;11.77;;;9.47;;
14603;SDS011;7388;51.078;13.740;2022-08-19T09:01:57;11.73;;;9.23;;
14603;SDS011;7388;51.078;13.740;2022-08-19T09:04:23;11.27;;;9.30;;
14603;SDS011;7388;51.078;13.740;2022-08-19T09:07:08;13.90;;;10.47;;
14603;SDS011;7388;51.078;13.740;2022-08-19T09:09:51;11.90;;;9.33;;
14603;SDS011;7388;51.078;13.740;2022-08-19T09:12:27;10.67;;;8.50;;
14603;SDS011;7388;51.078;13.740;2022-08-19T09:15:06;12.50;;;9.83;;
14603;SDS011;7388;51.078;13.740;2022-08-19T09:17:34;11.63;;;9.90;;
14603;SDS011;7388;51.078;13.740;2022-08-19T09:20:02;12.70;;;10.23;;
14603;SDS011;7388;51.078;13.740;2022-08-19T09:22:34;10.90;;;9.53;;
14603;SDS011;7388;51.078;13.740;2022-08-19T09:25:04;13.13;;;10.17;;
14603;SDS011;7388;51.078;13.740;2022-08-19T09:27:32;26.43;;;11.27;;
14603;SDS011;7388;51.078;13.740;2022-08-19T09:30:00;12.60;;;9.97;;
14603;SDS011;7388;51.078;13.740;2022-08-19T09:32:26;11.57;;;10.07;;
14603;SDS011;7388;51.078;13.740;2022-08-19T09:34:52;12.37;;;10.90;;
14603;SDS011;7388;51.078;13.740;2022-08-19T09:37:23;12.50;;;11.20;;
14603;SDS011;7388;51.078;13.740;2022-08-19T09:39:50;12.77;;;9.77;;
14603;SDS011;7388;51.078;13.740;2022-08-19T09:42:16;11.93;;;10.63;;
14603;SDS011;7388;51.078;13.740;2022-08-19T09:44:42;14.87;;;10.03;;
14603;SDS011;7388;51.078;13.740;2022-08-19T09:47:09;11.73;;;10.20;;
14603;SDS011;7388;51.078;13.740;2022-08-19T09:49:36;14.77;;;8.97;;
14603;SDS011;7388;51.078;13.740;2022-08-19T09:52:03;11.90;;;10.03;;
14603;SDS011;7388;51.078;13.740;2022-08-19T09:54:30;13.27;;;11.20;;
14603;SDS011;7388;51.078;13.740;2022-08-19T09:56:57;12.70;;;10.20;;
14603;SDS011;7388;51.078;13.740;2022-08-19T09:59:25;14.33;;;10.10;;
14603;SDS011;7388;51.078;13.740;2022-08-19T10:01:51;11.10;;;9.57;;
14603;SDS011;7388;51.078;13.740;2022-08-19T10:04:17;10.77;;;9.63;;
14603;SDS011;7388;51.078;13.740;2022-08-19T10:06:44;14.03;;;9.23;;
14603;SDS011;7388;51.078;13.740;2022-08-19T10:09:12;11.50;;;9.67;;
14603;SDS011;7388;51.078;13.740;2022-08-19T10:11:40;10.70;;;9.53;;
14603;SDS011;7388;51.078;13.740;2022-08-19T10:14:08;12.90;;;9.50;;
14603;SDS011;7388;51.078;13.740;2022-08-19T10:16:36;9.60;;;8.40;;
14603;SDS011;7388;51.078;13.740;2022-08-19T10:19:02;9.70;;;6.80;;
14603;SDS011;7388;51.078;13.740;2022-08-19T10:21:29;10.00;;;7.53;;
14603;SDS011;7388;51.078;13.740;2022-08-19T10:23:58;8.70;;;7.67;;
14603;SDS011;7388;51.078;13.740;2022-08-19T10:26:27;9.40;;;7.70;;
14603;SDS011;7388;51.078;13.740;2022-08-19T10:28:55;10.77;;;7.20;;
14603;SDS011;7388;51.078;13.740;2022-08-19T10:31:23;8.47;;;6.80;;
14603;SDS011;7388;51.078;13.740;2022-08-19T10:33:51;7.80;;;6.63;;
14603;SDS011;7388;51.078;13.740;2022-08-19T10:36:30;7.60;;;6.87;;
14603;SDS011;7388;51.078;13.740;2022-08-19T10:39:00;9.03;;;7.57;;
14603;SDS011;7388;51.078;13.740;2022-08-19T10:41:32;8.17;;;6.70;;
14603;SDS011;7388;51.078;13.740;2022-08-19T10:44:02;8.20;;;6.57;;
14603;SDS011;7388;51.078;13.740;2022-08-19T10:46:30;7.97;;;7.17;;
14603;SDS011;7388;51.078;13.740;2022-08-19T10:48:57;8.23;;;7.17;;
14603;SDS011;7388;51.078;13.740;2022-08-19T10:51:24;10.27;;;8.10;;
14603;SDS011;7388;51.078;13.740;2022-08-19T10:54:09;10.23;;;7.90;;
14603;SDS011;7388;51.078;13.740;2022-08-19T10:56:35;9.03;;;7.57;;
14603;SDS011;7388;51.078;13.740;2022-08-19T10:59:17;7.13;;;6.20;;
14603;SDS011;7388;51.078;13.740;2022-08-19T11:01:47;7.80;;;6.70;;
14603;SDS011;7388;51.078;13.740;2022-08-19T11:04:14;7.53;;;6.83;;
14603;SDS011;7388;51.078;13.740;2022-08-19T11:06:42;7.10;;;6.40;;
14603;SDS011;7388;51.078;13.740;2022-08-19T11:09:13;9.17;;;7.37;;
14603;SDS011;7388;51.078;13.740;2022-08-19T11:11:41;6.80;;;5.83;;
14603;SDS011;7388;51.078;13.740;2022-08-19T11:14:12;9.87;;;8.27;;
14603;SDS011;7388;51.078;13.740;2022-08-19T11:16:41;9.07;;;6.60;;
14603;SDS011;7388;51.078;13.740;2022-08-19T11:19:08;11.93;;;7.40;;
14603;SDS011;7388;51.078;13.740;2022-08-19T11:21:36;7.57;;;6.60;;
14603;SDS011;7388;51.078;13.740;2022-08-19T11:24:06;10.90;;;9.17;;
14603;SDS011;7388;51.078;13.740;2022-08-19T11:26:34;8.70;;;7.60;;
14603;SDS011;7388;51.078;13.740;2022-08-19T11:29:01;12.00;;;7.50;;
14603;SDS011;7388;51.078;13.740;2022-08-19T11:31:29;8.67;;;7.77;;
14603;SDS011;7388;51.078;13.740;2022-08-19T11:33:57;11.30;;;8.93;;
14603;SDS011;7388;51.078;13.740;2022-08-19T11:36:24;10.87;;;9.33;;
14603;SDS011;7388;51.078;13.740;2022-08-19T11:38:51;12.27;;;9.70;;
14603;SDS011;7388;51.078;13.740;2022-08-19T11:41:18;10.60;;;8.20;;
14603;SDS011;7388;51.078;13.740;2022-08-19T11:43:45;10.23;;;7.90;;
14603;SDS011;7388;51.078;13.740;2022-08-19T11:46:12;11.07;;;8.27;;
14603;SDS011;7388;51.078;13.740;2022-08-19T11:48:39;9.73;;;8.30;;
14603;SDS011;7388;51.078;13.740;2022-08-19T11:51:07;11.43;;;9.27;;
14603;SDS011;7388;51.078;13.740;2022-08-19T11:53:36;10.23;;;8.10;;
14603;SDS011;7388;51.078;13.740;2022-08-19T11:56:06;11.93;;;8.80;;
14603;SDS011;7388;51.078;13.740;2022-08-19T11:58:33;11.97;;;9.70;;
14603;SDS011;7388;51.078;13.740;2022-08-19T12:01:00;13.43;;;7.63;;
14603;SDS011;7388;51.078;13.740;2022-08-19T12:03:25;12.67;;;9.40;;
14603;SDS011;7388;51.078;13.740;2022-08-19T12:05:51;15.20;;;11.57;;
14603;SDS011;7388;51.078;13.740;2022-08-19T12:08:17;11.80;;;10.47;;
14603;SDS011;7388;51.078;13.740;2022-08-19T12:10:43;11.87;;;9.90;;
14603;SDS011;7388;51.078;13.740;2022-08-19T12:13:10;13.60;;;11.20;;
14603;SDS011;7388;51.078;13.740;2022-08-19T12:15:39;16.27;;;11.50;;
14603;SDS011;7388;51.078;13.740;2022-08-19T12:18:06;13.20;;;10.90;;
14603;SDS011;7388;51.078;13.740;2022-08-19T12:20:37;16.13;;;11.80;;
14603;SDS011;7388;51.078;13.740;2022-08-19T12:23:04;15.23;;;12.23;;
14603;SDS011;7388;51.078;13.740;2022-08-19T12:25:31;14.30;;;11.20;;
14603;SDS011;7388;51.078;13.740;2022-08-19T12:27:58;18.93;;;11.80;;
14603;SDS011;7388;51.078;13.740;2022-08-19T12:30:24;15.87;;;11.57;;
14603;SDS011;7388;51.078;13.740;2022-08-19T12:32:50;16.27;;;11.27;;
14603;SDS011;7388;51.078;13.740;2022-08-19T12:35:16;15.60;;;11.40;;
14603;SDS011;7388;51.078;13.740;2022-08-19T12:37:45;13.27;;;10.27;;
14603;SDS011;7388;51.078;13.740;2022-08-19T12:40:12;14.40;;;10.53;;
14603;SDS011;7388;51.078;13.740;2022-08-19T12:42:40;16.43;;;11.57;;
14603;SDS011;7388;51.078;13.740;2022-08-19T12:45:09;16.53;;;12.80;;
14603;SDS011;7388;51.078;13.740;2022-08-19T12:47:36;16.60;;;12.43;;
14603;SDS011;7388;51.078;13.740;2022-08-19T12:50:02;15.13;;;11.87;;
14603;SDS011;7388;51.078;13.740;2022-08-19T12:52:33;15.80;;;12.00;;
14603;SDS011;7388;51.078;13.740;2022-08-19T12:55:06;16.13;;;10.87;;
14603;SDS011;7388;51.078;13.740;2022-08-19T12:57:33;12.87;;;11.57;;
14603;SDS011;7388;51.078;13.740;2022-08-19T13:00:02;14.80;;;11.43;;
14603;SDS011;7388;51.078;13.740;2022-08-19T13:02:36;15.87;;;11.77;;
14603;SDS011;7388;51.078;13.740;2022-08-19T13:05:04;17.30;;;12.90;;
14603;SDS011;7388;51.078;13.740;2022-08-19T13:07:32;12.03;;;9.93;;
14603;SDS011;7388;51.078;13.740;2022-08-19T13:09:57;13.93;;;10.50;;
14603;SDS011;7388;51.078;13.740;2022-08-19T13:12:23;14.47;;;11.07;;
14603;SDS011;7388;51.078;13.740;2022-08-19T13:14:51;19.43;;;11.23;;
14603;SDS011;7388;51.078;13.740;2022-08-19T13:17:20;15.33;;;11.50;;
14603;SDS011;7388;51.078;13.740;2022-08-19T13:19:46;20.20;;;13.43;;
14603;SDS011;7388;51.078;13.740;2022-08-19T13:22:12;16.07;;;13.23;;
14603;SDS011;7388;51.078;13.740;2022-08-19T13:24:38;14.20;;;11.93;;
14603;SDS011;7388;51.078;13.740;2022-08-19T13:27:04;19.00;;;13.50;;
14603;SDS011;7388;51.078;13.740;2022-08-19T13:29:29;16.37;;;13.70;;
14603;SDS011;7388;51.078;13.740;2022-08-19T13:32:14;15.20;;;11.73;;
14603;SDS011;7388;51.078;13.740;2022-08-19T13:34:58;13.73;;;11.33;;
14603;SDS011;7388;51.078;13.740;2022-08-19T13:37:24;16.30;;;12.50;;
14603;SDS011;7388;51.078;13.740;2022-08-19T13:40:09;13.50;;;11.90;;
14603;SDS011;7388;51.078;13.740;2022-08-19T13:42:40;15.97;;;13.20;;
14603;SDS011;7388;51.078;13.740;2022-08-19T13:45:07;14.33;;;11.87;;
14603;SDS011;7388;51.078;13.740;2022-08-19T13:47:34;17.13;;;13.47;;
14603;SDS011;7388;51.078;13.740;2022-08-19T13:50:03;16.00;;;12.30;;
14603;SDS011;7388;51.078;13.740;2022-08-19T13:52:29;15.77;;;12.77;;
14603;SDS011;7388;51.078;13.740;2022-08-19T13:54:55;15.33;;;12.73;;
14603;SDS011;7388;51.078;13.740;2022-08-19T13:57:21;17.20;;;12.60;;
14603;SDS011;7388;51.078;13.740;2022-08-19T13:59:47;17.37;;;13.40;;
14603;SDS011;7388;51.078;13.740;2022-08-19T14:02:13;17.00;;;14.20;;
14603;SDS011;7388;51.078;13.740;2022-08-19T14:04:39;17.70;;;13.20;;
14603;SDS011;7388;51.078;13.740;2022-08-19T14:07:05;17.10;;;12.80;;
14603;SDS011;7388;51.078;13.740;2022-08-19T14:09:31;15.73;;;12.50;;
14603;SDS011;7388;51.078;13.740;2022-08-19T14:11:57;22.77;;;13.30;;
14603;SDS011;7388;51.078;13.740;2022-08-19T14:14:22;18.00;;;13.67;;
14603;SDS011;7388;51.078;13.740;2022-08-19T14:16:48;16.27;;;13.90;;
14603;SDS011;7388;51.078;13.740;2022-08-19T14:19:14;15.47;;;13.47;;
14603;SDS011;7388;51.078;13.740;2022-08-19T14:21:41;19.97;;;15.67;;
14603;SDS011;7388;51.078;13.740;2022-08-19T14:24:07;22.97;;;14.30;;
14603;SDS011;7388;51.078;13.740;2022-08-19T14:26:33;21.60;;;15.67;;
14603;SDS011;7388;51.078;13.740;2022-08-19T14:28:59;20.93;;;14.57;;
14603;SDS011;7388;51.078;13.740;2022-08-19T14:31:26;22.20;;;15.63;;
14603;SDS011;7388;51.078;13.740;2022-08-19T14:33:52;21.23;;;15.93;;
14603;SDS011;7388;51.078;13.740;2022-08-19T14:36:19;21.70;;;15.63;;
14603;SDS011;7388;51.078;13.740;2022-08-19T14:38:46;17.13;;;13.63;;
14603;SDS011;7388;51.078;13.740;2022-08-19T14:41:14;21.87;;;15.67;;
14603;SDS011;7388;51.078;13.740;2022-08-19T14:43:43;20.40;;;15.43;;
14603;SDS011;7388;51.078;13.740;2022-08-19T14:46:13;18.57;;;14.20;;